Lovell, WY (82431)

12:48 AM MDT on August 02, 2014 (GMT -0600)
NW Powell (KWYPOWEL1) Elev 4410 ft | 44.76 °N, 108.78 °W | Change Station

Current weather conditions updated 29 seconds ago

Clear
Clear
66.0 °F
Feels Like 66.0 °F
N
2.0
Wind Variable Wind from WSW
Gusts 2.0 mph

Today is forecast to be nearly the same temperature as yesterday.

Today
High -- | Low -- °F
--% Chance of Precip.
Yesterday
High -- | Low -- °F
Precip. -- in
6:00 AM 8:38 PM
Waxing Crescent, 33% visible
Pressure 30.05 in
Visibility 10.0 miles
Clouds Clear
Dew Point 49 °F
Humidity 55%
Rainfall 0.00 in
Snow Depth Not available.
UV 0 out of 12
Pollen 6.40 out of 12
Air Quality Not available.
Flu Activity Not available.
METAR KGEY 020553Z AUTO 31004KT 10SM CLR 22/08 A3017 RMK AO2 SLP175 T02220078 10306 20222 50002

More Conditions Fewer Conditions

Pressure 30.05 in
Visibility 10.0 miles
Clouds Clear
Dew Point 49 °F
Humidity 55%
Rainfall 0.00 in
Snow Depth Not available.
UV 0 out of 12
Pollen 6.40 out of 12
Air Quality Not available.
Flu Activity Not available.
METAR KGEY 020553Z AUTO 31004KT 10SM CLR 22/08 A3017 RMK AO2 SLP175 T02220078 10306 20222 50002

More Conditions Fewer Conditions

10-Day Weather Forecast

Almanac

Astronomy

Aug. 02, 2014 Rise Set
Actual Time 6:00 AM MDT 8:38 PM MDT
Civil Twilight 5:27 AM MDT 9:11 PM MDT
Nautical Twilight 4:44 AM MDT 9:53 PM MDT
Astronomical Twilight 3:56 AM MDT 10:41 PM MDT
Moon 12:43 PM MDT 11:39 PM MDT
Length of Visible Light 15h 44m
Length of Day
14h 37m
Tomorrow will be 2m 26s shorter.
Waxing Crescent, 33% of the Moon is Illuminated
Today
Waxing Crescent
Aug 3
First Quarter
Aug 10
Full
Aug 17
Last Quarter
Aug 25
New

Community

WunderPhotos

Upload Photos

1,739,830 photos uploaded!

Nearby

Snow Depth

Station Depth Elevation
Bald Mountain 0 in 9380 ft
Bone Springs Divide 0 in 9350 ft
Burgess Junction 0 in 7880 ft
Shell Creek 0 in 9580 ft
Big Goose 0 in 7990 ft

Earthquake Activity

City Distance Mag. Time & Date
No recent earthquake activity has been reported nearby.
Minimum magnitude displayed is 2.5.

Coastal Water Temperatures

Place Temperature
No Stations Reporting

Nearby Weather Stations

Station Location Temp. Heat Index Dew Point Humidity Wind Precip. Elev Updated Type
NW Powell, Powell, WY 66.0 °F - 49 °F 55% WSW  at  2.0 mph 0.00 in / hr 4410 ft 12:47 AM MDT Rapid Fire
RAWS HILLSBORO MT, Cowley, WY 71 °F 77 °F 45 °F 39% West  at  3 mph 0.00 in / hr 3985 ft 11:29 PM MDT MADIS
Crestview Estates, Powell, WY 64.6 °F - 51 °F 61% SW  at  15.0 mph 0.00 in / hr 4507 ft 12:48 AM MDT Rapid Fire
RAWS WILD HORSE MT, Cowley, WY 57 °F - 35 °F 43% ENE  at  2 mph 0.00 in / hr 8149 ft 11:48 PM MDT MADIS

Show More Stations Show Fewer Stations